Time;durP1;ratioP1;P1;durP2;ratioP2;P2;SDS_P1;SDS_P2;PMS_P1;PMS_P2;Temp;Humidity;BMP_temperature;BMP_pressure;BME280_temperature;BME280_humidity;BME280_pressure;Samples;Min_cycle;Max_cycle;Signal;HPM_P1;HPM_P2
2022/01/08 00:00:06;;;;;;;35.58;11.60;;;;;;;17.14;12.46;98152.16;4970408;28;20043;-73
2022/01/08 00:02:32;;;;;;;33.40;10.88;;;;;;;16.58;12.86;98143.38;4971633;28;20027;-72
2022/01/08 00:05:00;;;;;;;34.53;11.23;;;;;;;16.47;12.90;98148.78;4974756;28;20039;-73
2022/01/08 00:07:26;;;;;;;38.05;11.52;;;;;;;16.71;12.60;98141.88;4968587;28;20487;-72
2022/01/08 00:09:52;;;;;;;36.20;10.77;;;;;;;16.02;13.19;98132.47;4958194;28;20546;-72
2022/01/08 00:12:19;;;;;;;35.40;11.40;;;;;;;16.15;13.17;98133.78;4974666;28;20035;-72
2022/01/08 00:14:45;;;;;;;20.98;8.73;;;;;;;16.10;13.67;98133.34;4978251;28;20133;-72
2022/01/08 00:17:11;;;;;;;32.03;10.15;;;;;;;16.13;13.37;98114.00;4974699;28;20086;-73
2022/01/08 00:19:37;;;;;;;35.97;10.98;;;;;;;16.29;13.14;98120.09;4969493;28;20046;-72
2022/01/08 00:22:03;;;;;;;37.95;11.00;;;;;;;16.68;12.67;98119.69;4975819;28;20039;-73
2022/01/08 00:24:30;;;;;;;40.88;12.18;;;;;;;17.01;12.58;98117.56;4976885;28;20045;-72
2022/01/08 00:26:56;;;;;;;53.83;18.52;;;;;;;17.21;12.21;98115.31;4971640;28;20054;-72
2022/01/08 00:29:22;;;;;;;42.42;12.57;;;;;;;17.10;12.18;98120.81;4978881;28;20034;-72
2022/01/08 00:31:48;;;;;;;35.58;11.63;;;;;;;17.18;12.08;98118.88;4972527;28;20043;-72
2022/01/08 00:34:14;;;;;;;40.35;12.80;;;;;;;17.42;12.25;98114.66;4972527;28;20138;-72
2022/01/08 00:36:40;;;;;;;36.90;13.43;;;;;;;17.66;11.81;98119.56;4977682;28;20079;-72
2022/01/08 00:39:06;;;;;;;37.88;11.02;;;;;;;16.75;12.40;98122.53;4975671;28;20039;-72
2022/01/08 00:41:32;;;;;;;40.63;12.43;;;;;;;15.61;13.34;98122.50;4975154;28;20073;-72
2022/01/08 00:43:58;;;;;;;38.75;12.43;;;;;;;15.83;13.22;98125.16;4973461;28;20066;-72
2022/01/08 00:46:25;;;;;;;36.60;12.55;;;;;;;16.27;13.07;98125.22;4976811;28;20482;-72
2022/01/08 00:48:51;;;;;;;39.40;12.90;;;;;;;16.82;12.42;98119.81;4976335;28;20043;-72
2022/01/08 00:51:17;;;;;;;54.55;18.15;;;;;;;17.02;12.36;98113.63;4975696;28;20026;-72
2022/01/08 00:53:43;;;;;;;53.05;16.77;;;;;;;16.91;12.25;98101.66;4973578;28;22587;-72
2022/01/08 00:56:09;;;;;;;47.80;13.60;;;;;;;17.00;12.08;98106.88;4971305;28;20497;-72
2022/01/08 00:58:35;;;;;;;35.13;11.40;;;;;;;17.03;12.29;98104.13;4971577;28;20054;-72
2022/01/08 01:01:02;;;;;;;40.42;12.30;;;;;;;16.86;12.44;98110.34;4973154;28;20043;-72
2022/01/08 01:03:28;;;;;;;39.80;13.30;;;;;;;16.77;12.22;98098.78;4969968;28;20034;-72
2022/01/08 01:05:54;;;;;;;47.13;14.10;;;;;;;16.87;12.60;98094.50;4987126;28;20077;-72
2022/01/08 01:08:20;;;;;;;34.60;11.23;;;;;;;16.83;12.15;98099.19;4977644;28;20035;-72
2022/01/08 01:10:46;;;;;;;44.38;11.65;;;;;;;16.90;11.98;98091.75;4976019;28;20109;-72
2022/01/08 01:13:12;;;;;;;32.45;11.98;;;;;;;17.06;12.40;98086.69;4978797;28;20293;-72
2022/01/08 01:15:38;;;;;;;40.00;12.65;;;;;;;16.95;12.63;98093.34;4975660;28;20070;-77
2022/01/08 01:18:05;;;;;;;31.38;10.52;;;;;;;16.73;12.41;98095.19;4973630;28;20035;-72
2022/01/08 01:20:31;;;;;;;40.90;12.55;;;;;;;16.56;12.54;98082.78;4971799;28;20039;-72
2022/01/08 01:23:04;;;;;;;42.33;13.20;;;;;;;16.51;12.76;98082.34;4970914;28;20042;-72
2022/01/08 01:25:46;;;;;;;36.97;11.05;;;;;;;16.39;12.37;98071.50;4981334;28;20077;-72
2022/01/08 01:41:47;;;;;;;37.17;10.73;;;;;;;15.06;13.11;98058.53;4976560;28;20109;-72
2022/01/08 01:47:01;;;;;;;32.30;9.18;;;;;;;15.22;13.90;98063.84;4975760;28;20039;-72
2022/01/08 01:49:44;;;;;;;34.63;10.85;;;;;;;15.54;13.40;98053.25;4973661;28;20105;-72
2022/01/08 01:52:13;;;;;;;31.08;9.48;;;;;;;15.97;12.88;98055.28;4971448;28;20093;-72
2022/01/08 01:54:40;;;;;;;26.23;8.20;;;;;;;16.55;12.28;98055.44;4973443;28;20038;-72
2022/01/08 01:57:08;;;;;;;34.40;11.73;;;;;;;16.75;11.93;98056.00;4971498;28;20043;-72
2022/01/08 01:59:35;;;;;;;38.10;12.27;;;;;;;16.40;12.52;98054.53;4970578;28;20031;-73
2022/01/08 02:02:03;;;;;;;35.17;12.70;;;;;;;16.59;12.12;98045.19;4969593;28;20753;-72
2022/01/08 02:04:29;;;;;;;33.38;10.45;;;;;;;16.79;11.83;98035.44;4968300;28;20363;-72
2022/01/08 02:06:55;;;;;;;31.98;12.35;;;;;;;16.79;11.91;98032.66;4974743;28;20479;-72
2022/01/08 02:09:21;;;;;;;41.08;12.60;;;;;;;16.42;12.09;98037.50;4978766;28;20026;-72
2022/01/08 02:12:02;;;;;;;31.10;11.10;;;;;;;15.91;12.42;98037.44;4972054;28;20031;-72
2022/01/08 02:14:31;;;;;;;40.78;12.35;;;;;;;15.85;12.61;98038.94;4974925;28;20023;-72
2022/01/08 02:16:57;;;;;;;30.17;9.48;;;;;;;15.73;12.76;98034.47;4974937;28;20379;-72
2022/01/08 02:19:24;;;;;;;32.05;10.43;;;;;;;15.78;13.05;98033.34;4977667;28;20031;-72
2022/01/08 02:21:54;;;;;;;29.75;8.57;;;;;;;15.82;12.90;98021.13;4966849;28;20037;-72
2022/01/08 02:24:21;;;;;;;26.27;8.73;;;;;;;16.16;12.51;98024.63;4970012;28;20078;-72
2022/01/08 02:26:48;;;;;;;30.55;9.63;;;;;;;16.14;13.01;98020.63;4972872;28;20479;-73
2022/01/08 02:29:16;;;;;;;26.52;9.25;;;;;;;15.59;13.13;98020.47;4970119;28;20033;-72
2022/01/08 02:31:59;;;;;;;22.92;8.27;;;;;;;15.28;13.21;98012.59;4972682;28;20422;-72
2022/01/08 02:34:27;;;;;;;30.63;9.13;;;;;;;14.62;13.97;98001.41;4972917;28;20031;-72
2022/01/08 02:36:54;;;;;;;24.00;7.53;;;;;;;14.97;13.69;97999.16;4973044;28;20027;-72
2022/01/08 02:39:20;;;;;;;18.52;6.93;;;;;;;14.36;13.68;97997.50;4972355;28;20182;-72
2022/01/08 02:41:47;;;;;;;20.13;6.55;;;;;;;15.29;13.18;97994.00;4979959;28;20114;-72
2022/01/08 02:44:14;;;;;;;18.92;6.40;;;;;;;15.24;13.46;97981.31;4973026;28;20507;-72
2022/01/08 02:46:41;;;;;;;17.38;6.15;;;;;;;15.00;13.28;97985.38;4974642;28;20041;-72
2022/01/08 02:49:08;;;;;;;17.50;5.93;;;;;;;14.92;13.68;97985.66;4973750;28;20031;-72
2022/01/08 02:51:35;;;;;;;18.80;5.18;;;;;;;14.76;13.60;97983.09;4974379;28;20034;-72
2022/01/08 02:54:02;;;;;;;22.20;6.95;;;;;;;14.16;14.10;97984.94;4972905;28;20485;-72
2022/01/08 02:56:29;;;;;;;19.40;7.53;;;;;;;11.60;15.93;97994.75;4971961;28;20035;-72
2022/01/08 02:58:55;;;;;;;18.55;5.60;;;;;;;11.04;17.75;97996.75;4969324;28;20073;-72
2022/01/08 03:01:21;;;;;;;16.70;5.07;;;;;;;12.23;16.62;97995.56;4966424;28;20039;-72
2022/01/08 03:03:47;;;;;;;14.32;4.43;;;;;;;13.88;14.42;97986.41;4970555;28;20120;-72
2022/01/08 03:06:13;;;;;;;15.10;5.65;;;;;;;15.14;13.56;97987.53;4971956;28;20573;-72
2022/01/08 03:08:39;;;;;;;19.17;6.65;;;;;;;16.04;12.83;97990.88;4971406;28;20066;-72
2022/01/08 03:11:05;;;;;;;21.65;7.70;;;;;;;16.69;12.25;97983.47;4972500;28;20083;-72
2022/01/08 03:13:31;;;;;;;18.27;7.10;;;;;;;17.04;12.04;97977.31;4973194;28;20042;-72
2022/01/08 03:15:57;;;;;;;28.45;8.43;;;;;;;17.32;11.72;97971.13;4984905;28;20050;-72
2022/01/08 03:18:23;;;;;;;22.50;7.57;;;;;;;17.45;11.74;97983.44;4969821;28;20379;-72
2022/01/08 03:21:01;;;;;;;14.10;3.88;;;;;;;16.20;12.49;97981.13;4970228;28;20406;-73
2022/01/08 03:23:38;;;;;;;15.48;5.20;;;;;;;16.36;12.43;97978.09;4967628;28;20644;-72
2022/01/08 03:26:04;;;;;;;15.32;5.65;;;;;;;16.79;12.21;97977.19;4971141;28;20061;-72
2022/01/08 03:28:31;;;;;;;21.42;8.02;;;;;;;17.08;11.78;97978.16;4973487;28;20035;-72
2022/01/08 03:30:57;;;;;;;28.13;8.85;;;;;;;17.28;11.49;97977.44;4976303;28;20481;-72
2022/01/08 03:33:23;;;;;;;28.77;10.18;;;;;;;17.46;11.62;97973.91;4979642;28;20109;-72
2022/01/08 03:35:49;;;;;;;34.88;11.88;;;;;;;17.46;11.54;97962.81;4973040;28;20031;-72
2022/01/08 03:38:15;;;;;;;33.83;11.45;;;;;;;16.16;12.54;97972.00;4971358;28;20343;-72
2022/01/08 03:40:41;;;;;;;30.58;9.75;;;;;;;15.87;12.33;97965.41;4971759;28;20105;-72
2022/01/08 03:43:07;;;;;;;28.98;8.95;;;;;;;15.32;12.87;97969.16;4971260;28;20117;-72
2022/01/08 03:45:33;;;;;;;29.80;7.68;;;;;;;15.02;13.29;97958.16;4971263;28;20035;-72
2022/01/08 03:50:31;;;;;;;17.55;6.45;;;;;;;15.72;12.83;97949.88;4972970;28;20157;-72
2022/01/08 03:52:57;;;;;;;17.85;6.32;;;;;;;16.01;12.56;97939.03;4971981;28;20038;-72
2022/01/08 03:55:23;;;;;;;17.45;6.18;;;;;;;16.28;12.46;97941.22;4969302;28;20031;-72
2022/01/08 03:57:49;;;;;;;21.00;6.20;;;;;;;16.26;12.34;97940.03;4961071;28;20544;-72
2022/01/08 04:00:15;;;;;;;22.90;6.93;;;;;;;16.23;12.36;97933.28;4971818;28;20031;-72
2022/01/08 04:02:41;;;;;;;19.10;7.43;;;;;;;16.52;12.06;97942.59;4966786;28;20058;-72
2022/01/08 04:05:08;;;;;;;27.10;7.15;;;;;;;16.68;11.70;97939.53;4970940;28;20109;-72
2022/01/08 04:07:34;;;;;;;25.10;7.45;;;;;;;16.70;11.98;97935.19;4974833;28;20066;-72
2022/01/08 04:10:00;;;;;;;14.50;6.32;;;;;;;16.85;11.75;97934.06;4972428;28;20118;-72
2022/01/08 04:12:41;;;;;;;22.33;6.78;;;;;;;16.80;11.59;97928.91;4970556;28;20062;-72
2022/01/08 04:15:30;;;;;;;16.75;5.60;;;;;;;16.68;11.88;97923.69;4971572;28;20113;-72
2022/01/08 04:17:55;;;;;;;16.05;6.15;;;;;;;15.86;12.48;97925.09;4978856;28;20544;-72
2022/01/08 04:20:23;;;;;;;17.83;6.47;;;;;;;14.36;13.43;97925.69;4971455;28;20034;-72
2022/01/08 04:22:50;;;;;;;16.13;5.05;;;;;;;14.43;13.76;97930.53;4968558;28;20027;-72
2022/01/08 04:25:19;;;;;;;18.13;5.80;;;;;;;15.07;13.66;97926.63;4978005;28;20039;-72
2022/01/08 04:27:46;;;;;;;20.27;5.22;;;;;;;15.53;12.76;97927.13;4974993;28;20065;-72
2022/01/08 04:30:12;;;;;;;16.20;4.82;;;;;;;15.87;12.56;97918.34;4970311;28;20043;-72
2022/01/08 04:32:39;;;;;;;15.90;5.13;;;;;;;15.95;12.53;97918.41;4970767;28;20030;-72
2022/01/08 04:35:06;;;;;;;11.68;4.15;;;;;;;16.02;12.55;97918.47;4971652;28;20054;-72
2022/01/08 04:37:32;;;;;;;9.48;4.22;;;;;;;16.15;12.34;97914.22;4970902;28;20063;-72
2022/01/08 04:39:58;;;;;;;11.52;4.18;;;;;;;16.39;12.28;97919.13;4972344;28;20065;-72
2022/01/08 04:42:24;;;;;;;9.98;4.53;;;;;;;16.30;12.21;97915.91;4970153;28;20035;-72
2022/01/08 04:44:52;;;;;;;12.07;5.13;;;;;;;16.48;11.85;97900.97;4973731;28;20483;-72
2022/01/08 04:47:18;;;;;;;11.50;4.88;;;;;;;16.68;11.78;97911.81;4982218;28;20105;-72
2022/01/08 04:49:44;;;;;;;10.40;4.60;;;;;;;17.05;11.47;97902.06;4986746;28;20094;-72
2022/01/08 04:52:11;;;;;;;12.38;4.30;;;;;;;16.48;11.92;97902.94;4977577;28;20027;-73
2022/01/08 04:54:37;;;;;;;9.25;4.40;;;;;;;16.50;12.54;97906.13;4973072;28;20054;-72
2022/01/08 04:57:04;;;;;;;8.88;3.40;;;;;;;16.32;12.24;97908.00;4977062;28;20478;-72
2022/01/08 04:59:30;;;;;;;8.85;3.78;;;;;;;16.07;12.29;97907.03;4976997;28;20041;-72
2022/01/08 05:01:56;;;;;;;8.27;3.45;;;;;;;16.09;12.05;97916.56;4972383;28;21132;-72
2022/01/08 05:04:22;;;;;;;7.35;3.17;;;;;;;16.29;12.01;97914.31;4971350;28;20038;-72
2022/01/08 05:06:48;;;;;;;8.50;3.72;;;;;;;16.55;11.85;97912.13;4983499;28;20486;-72
2022/01/08 05:09:14;;;;;;;8.27;2.92;;;;;;;16.99;11.55;97909.16;4977582;28;20035;-72
2022/01/08 05:11:40;;;;;;;10.82;3.47;;;;;;;17.33;11.46;97911.63;4973466;28;20498;-72
2022/01/08 05:14:08;;;;;;;10.85;4.15;;;;;;;17.45;11.38;97916.81;4976405;28;20102;-72
2022/01/08 05:16:35;;;;;;;15.57;5.43;;;;;;;17.49;11.03;97910.09;4976533;28;20122;-72
2022/01/08 05:19:02;;;;;;;19.48;6.25;;;;;;;17.55;11.42;97907.75;4981642;28;20053;-72
2022/01/08 05:21:31;;;;;;;15.98;7.07;;;;;;;16.89;11.63;97915.47;4971040;28;20045;-72
2022/01/08 05:23:58;;;;;;;18.13;6.28;;;;;;;16.31;12.32;97911.97;4972100;28;20027;-72
2022/01/08 05:26:26;;;;;;;14.43;4.65;;;;;;;16.37;12.00;97919.50;4987091;28;20045;-72
2022/01/08 05:28:53;;;;;;;17.02;5.78;;;;;;;16.40;11.99;97912.41;4980531;28;20109;-72
2022/01/08 05:31:22;;;;;;;18.90;6.15;;;;;;;16.64;12.03;97914.53;4973508;28;20110;-72
2022/01/08 05:33:49;;;;;;;15.30;6.05;;;;;;;16.73;11.51;97914.22;4982464;28;20039;-72
2022/01/08 05:36:16;;;;;;;18.70;6.85;;;;;;;16.68;11.51;97912.59;4978024;28;20042;-72
2022/01/08 05:38:42;;;;;;;16.13;6.80;;;;;;;16.65;11.86;97912.56;4978639;28;20036;-72
2022/01/08 05:41:09;;;;;;;13.25;5.68;;;;;;;16.86;11.78;97913.47;4986130;28;20034;-72
2022/01/08 05:43:35;;;;;;;18.25;6.63;;;;;;;16.73;11.80;97906.69;4975607;28;20042;-72
2022/01/08 05:46:01;;;;;;;14.52;5.15;;;;;;;16.62;12.09;97910.59;4980221;28;20454;-72
2022/01/08 05:48:27;;;;;;;12.98;4.65;;;;;;;16.36;12.04;97920.69;4973242;28;20501;-72
2022/01/08 05:50:53;;;;;;;13.05;4.43;;;;;;;16.22;12.35;97917.81;4978498;28;20030;-72
2022/01/08 05:53:20;;;;;;;9.80;4.30;;;;;;;16.24;11.95;97917.44;4976514;28;20030;-72
2022/01/08 05:55:47;;;;;;;7.03;3.13;;;;;;;16.03;12.15;97917.28;4976152;28;20454;-72
2022/01/08 05:58:13;;;;;;;11.38;4.60;;;;;;;16.28;11.99;97915.50;4975492;28;20117;-72
2022/01/08 06:00:39;;;;;;;13.85;4.13;;;;;;;16.71;12.07;97916.56;4983290;28;20031;-72
2022/01/08 06:03:05;;;;;;;11.00;3.50;;;;;;;16.68;12.24;97914.56;4979733;28;20034;-71
2022/01/08 06:05:31;;;;;;;9.85;3.35;;;;;;;16.80;12.11;97917.81;4973050;28;20043;-72
2022/01/08 06:07:57;;;;;;;7.95;3.17;;;;;;;16.68;11.91;97926.47;4980885;28;20043;-72
2022/01/08 06:10:23;;;;;;;7.15;3.35;;;;;;;16.57;12.04;97923.63;4978338;28;20134;-72
2022/01/08 06:12:52;;;;;;;8.80;3.10;;;;;;;16.76;12.14;97921.72;4978201;28;20089;-72
2022/01/08 06:15:19;;;;;;;13.18;4.70;;;;;;;16.79;11.50;97920.94;4975085;28;20031;-72
2022/01/08 06:17:46;;;;;;;15.32;5.15;;;;;;;16.86;11.51;97913.47;4965218;28;20545;-72
2022/01/08 06:20:12;;;;;;;14.43;5.18;;;;;;;17.05;11.30;97909.59;4971334;28;20061;-72
2022/01/08 06:22:38;;;;;;;11.57;5.20;;;;;;;16.93;11.53;97904.38;4977135;28;20474;-72
2022/01/08 06:25:05;;;;;;;13.68;4.60;;;;;;;16.65;11.83;97909.78;4979580;28;20482;-72
2022/01/08 06:27:31;;;;;;;10.15;4.20;;;;;;;16.00;12.31;97905.00;4972261;28;20089;-72
2022/01/08 06:29:57;;;;;;;11.68;4.25;;;;;;;15.49;12.99;97910.50;4973195;28;20031;-72
2022/01/08 06:32:23;;;;;;;12.90;3.63;;;;;;;15.46;13.08;97914.03;4971578;28;20043;-72
2022/01/08 06:34:49;;;;;;;17.20;4.00;;;;;;;15.69;12.80;97905.53;4967454;28;20105;-72
2022/01/08 06:37:15;;;;;;;15.65;4.38;;;;;;;15.87;12.55;97910.03;4972541;28;20039;-72
2022/01/08 06:39:42;;;;;;;12.55;5.13;;;;;;;16.15;12.47;97903.16;4967600;28;20104;-71
2022/01/08 06:42:08;;;;;;;14.65;4.38;;;;;;;16.37;12.21;97902.09;4953926;28;20042;-72
2022/01/08 06:44:34;;;;;;;12.38;4.25;;;;;;;16.56;12.37;97901.84;4962673;28;20043;-72
2022/01/08 06:47:00;;;;;;;10.32;4.13;;;;;;;16.07;12.46;97907.03;4973276;28;20042;-74
2022/01/08 06:49:26;;;;;;;8.95;3.78;;;;;;;16.45;12.38;97906.50;4967313;28;20033;-72
2022/01/08 06:51:52;;;;;;;11.13;3.88;;;;;;;16.44;12.24;97911.25;4975685;28;20038;-72
2022/01/08 06:54:18;;;;;;;12.20;4.15;;;;;;;16.31;12.30;97912.72;4979504;28;20497;-72
2022/01/08 06:56:44;;;;;;;11.60;3.97;;;;;;;15.66;12.96;97903.56;4983309;28;20434;-72
2022/01/08 06:59:10;;;;;;;9.30;2.95;;;;;;;15.81;13.04;97911.59;4970410;28;20125;-72
2022/01/08 07:01:36;;;;;;;11.05;4.03;;;;;;;15.99;12.71;97911.72;4977625;28;20038;-72
2022/01/08 07:04:04;;;;;;;8.68;3.83;;;;;;;16.04;13.01;97914.13;4969401;28;20046;-72
2022/01/08 07:06:30;;;;;;;10.50;3.65;;;;;;;16.71;12.52;97906.25;4972824;28;20034;-72
2022/01/08 07:08:56;;;;;;;11.02;3.60;;;;;;;16.25;12.74;97917.06;4971175;28;20043;-72
2022/01/08 07:11:22;;;;;;;11.63;4.35;;;;;;;14.43;14.19;97920.28;4971065;28;20035;-72
2022/01/08 07:13:48;;;;;;;10.25;3.58;;;;;;;15.97;13.21;97919.63;4969468;28;20050;-72
2022/01/08 07:16:14;;;;;;;11.13;4.00;;;;;;;16.67;12.79;97916.53;4964843;28;20529;-72
2022/01/08 07:18:40;;;;;;;12.05;3.88;;;;;;;17.50;12.22;97914.47;4966130;28;20042;-72
2022/01/08 07:21:06;;;;;;;8.95;3.83;;;;;;;17.74;11.96;97905.38;4971864;28;20439;-72
2022/01/08 07:23:32;;;;;;;11.48;4.05;;;;;;;17.42;12.38;97901.75;4973513;28;20038;-72
2022/01/08 07:25:58;;;;;;;10.48;4.53;;;;;;;17.46;12.59;97902.53;4972489;28;20043;-72
2022/01/08 07:28:24;;;;;;;12.25;3.70;;;;;;;17.94;12.25;97905.81;4970961;28;20046;-73
2022/01/08 07:30:51;;;;;;;9.25;3.75;;;;;;;18.32;12.04;97895.84;4994230;28;20054;-72
2022/01/08 07:33:17;;;;;;;8.98;3.45;;;;;;;18.44;11.89;97900.97;4970560;28;20520;-72
2022/01/08 07:35:43;;;;;;;10.60;3.17;;;;;;;18.85;12.10;97901.28;4974441;28;20031;-72
2022/01/08 07:38:09;;;;;;;5.63;3.05;;;;;;;19.60;11.52;97892.16;4970700;28;20038;-72
2022/01/08 07:40:35;;;;;;;4.75;2.65;;;;;;;19.90;11.10;97897.13;4972004;28;20561;-73
2022/01/08 07:43:01;;;;;;;7.50;3.25;;;;;;;19.88;11.50;97897.50;4969879;28;20039;-73
2022/01/08 07:45:27;;;;;;;10.10;3.15;;;;;;;20.23;11.29;97892.88;4975834;28;20047;-74
2022/01/08 07:47:53;;;;;;;8.43;2.97;;;;;;;20.34;11.50;97888.78;4970211;28;20039;-74
2022/01/08 07:50:19;;;;;;;9.10;3.28;;;;;;;20.54;11.30;97886.16;4971755;28;20042;-74
2022/01/08 07:52:46;;;;;;;6.65;2.97;;;;;;;20.49;11.28;97878.28;4971770;28;20080;-74
2022/01/08 07:55:12;;;;;;;15.25;4.80;;;;;;;20.56;11.27;97881.00;4978239;28;20070;-74
2022/01/08 07:57:39;;;;;;;11.48;3.97;;;;;;;20.40;11.94;97877.94;4967316;28;20035;-74
2022/01/08 08:00:06;;;;;;;13.38;4.80;;;;;;;20.36;11.76;97872.44;4971597;28;20037;-73
2022/01/08 08:02:32;;;;;;;8.00;3.25;;;;;;;20.42;11.84;97870.75;4965200;28;20039;-74
2022/01/08 08:04:58;;;;;;;17.48;5.32;;;;;;;20.30;12.37;97871.31;4962462;28;20057;-73
2022/01/08 08:07:36;;;;;;;11.00;4.13;;;;;;;20.17;11.97;97874.97;4966543;28;20569;-74
2022/01/08 08:10:08;;;;;;;8.68;3.90;;;;;;;20.67;11.45;97873.28;4971289;28;20038;-74
2022/01/08 08:12:34;;;;;;;12.48;4.05;;;;;;;20.89;11.31;97868.22;4967591;28;20035;-74
2022/01/08 08:15:00;;;;;;;12.85;5.13;;;;;;;21.11;11.55;97873.16;4973141;28;20565;-74
2022/01/08 08:17:26;;;;;;;11.95;5.50;;;;;;;20.85;11.38;97867.47;4973141;28;20047;-74
2022/01/08 08:19:52;;;;;;;17.52;6.63;;;;;;;21.06;11.44;97881.19;4974601;28;20129;-74
2022/01/08 08:22:18;;;;;;;15.82;6.43;;;;;;;20.99;11.61;97867.31;4973198;28;20046;-74
2022/01/08 08:24:44;;;;;;;11.65;4.80;;;;;;;21.09;11.67;97875.59;4976782;28;20153;-74
2022/01/08 08:27:10;;;;;;;11.63;5.82;;;;;;;21.35;11.38;97871.25;4977961;28;20426;-74
2022/01/08 08:29:38;;;;;;;11.38;4.68;;;;;;;21.14;11.36;97861.13;4978534;28;20037;-75
2022/01/08 08:32:04;;;;;;;11.75;4.93;;;;;;;20.93;11.67;97863.41;4978552;28;20051;-74
2022/01/08 08:34:30;;;;;;;19.92;8.85;;;;;;;20.83;11.47;97853.97;4974134;28;20046;-74
2022/01/08 08:36:56;;;;;;;65.03;22.88;;;;;;;21.15;11.33;97864.72;4980928;28;20035;-73
2022/01/08 08:39:23;;;;;;;32.83;13.38;;;;;;;21.37;11.37;97862.44;4972233;28;20031;-74
2022/01/08 08:41:49;;;;;;;34.90;15.55;;;;;;;21.74;11.31;97854.69;4971988;28;20101;-74
2022/01/08 08:44:16;;;;;;;25.35;11.45;;;;;;;21.99;11.13;97854.28;4970617;28;20039;-75
2022/01/08 08:46:42;;;;;;;20.08;8.57;;;;;;;21.95;11.28;97854.34;4974642;28;20033;-74
2022/01/08 08:49:09;;;;;;;19.35;7.65;;;;;;;21.85;11.55;97865.69;4973630;28;20043;-73
2022/01/08 08:51:35;;;;;;;17.48;7.22;;;;;;;21.86;11.27;97854.13;4981083;28;20035;-74
2022/01/08 08:54:01;;;;;;;15.48;6.55;;;;;;;22.06;11.55;97864.53;4980712;28;20039;-74
2022/01/08 08:56:30;;;;;;;19.65;7.95;;;;;;;22.01;10.97;97865.81;4971776;28;20022;-75
2022/01/08 08:58:56;;;;;;;11.95;6.57;;;;;;;22.19;11.35;97854.34;4967558;28;20062;-74
2022/01/08 09:01:23;;;;;;;16.63;6.07;;;;;;;22.35;11.35;97855.25;4968243;28;20066;-74
2022/01/08 09:03:49;;;;;;;10.55;5.05;;;;;;;22.45;10.92;97859.84;4965211;28;20117;-74
2022/01/08 09:06:15;;;;;;;9.82;4.75;;;;;;;22.69;11.24;97858.59;4974409;28;20071;-74
2022/01/08 09:08:41;;;;;;;11.07;5.30;;;;;;;22.82;11.29;97855.16;4964800;28;20114;-74
2022/01/08 09:11:07;;;;;;;15.82;6.10;;;;;;;23.04;11.33;97859.88;4969718;28;20026;-74
2022/01/08 09:13:33;;;;;;;25.30;10.15;;;;;;;23.26;11.10;97863.03;4978286;28;20035;-74
2022/01/08 09:15:59;;;;;;;18.15;6.93;;;;;;;23.47;10.72;97862.56;4966085;28;20529;-77
2022/01/08 09:18:26;;;;;;;15.40;5.85;;;;;;;23.42;10.84;97870.69;4972348;28;20031;-75
2022/01/08 09:20:52;;;;;;;11.45;5.03;;;;;;;23.42;10.69;97865.09;4970958;28;20034;-74
2022/01/08 09:23:18;;;;;;;17.27;5.35;;;;;;;23.60;11.10;97860.66;4977049;28;20045;-75
2022/01/08 09:25:44;;;;;;;46.72;13.13;;;;;;;23.90;10.62;97865.94;4972468;28;20133;-74
2022/01/08 09:28:10;;;;;;;52.22;14.63;;;;;;;24.12;11.23;97855.00;4972100;28;20470;-74
2022/01/08 09:30:36;;;;;;;42.90;14.25;;;;;;;24.19;11.95;97862.44;4973533;28;20074;-75
2022/01/08 09:33:02;;;;;;;34.22;11.70;;;;;;;24.35;11.99;97851.19;4973121;28;20118;-74
2022/01/08 09:35:29;;;;;;;23.63;9.90;;;;;;;24.12;12.01;97860.63;4972715;28;20038;-75
2022/01/08 09:37:55;;;;;;;17.00;8.27;;;;;;;23.58;12.30;97853.91;4985046;28;20042;-74
2022/01/08 09:40:22;;;;;;;15.27;6.13;;;;;;;23.24;12.16;97855.03;4976049;28;20069;-75
2022/01/08 09:42:49;;;;;;;18.95;6.80;;;;;;;23.13;11.74;97853.69;4971482;28;20032;-76
2022/01/08 09:45:15;;;;;;;28.15;10.02;;;;;;;23.39;11.73;97844.34;4973237;28;20070;-76
2022/01/08 09:47:41;;;;;;;24.17;9.68;;;;;;;23.77;12.45;97848.25;4972838;28;20070;-75
2022/01/08 09:50:08;;;;;;;18.10;6.50;;;;;;;24.22;11.97;97853.16;4973700;28;20125;-75
2022/01/08 09:52:36;;;;;;;28.77;9.63;;;;;;;24.52;12.11;97853.53;4973082;28;20027;-75
2022/01/08 09:55:03;;;;;;;56.15;18.58;;;;;;;24.72;12.20;97840.13;4975306;28;20402;-75
2022/01/08 09:57:29;;;;;;;18.50;8.30;;;;;;;24.58;11.45;97848.16;4971183;28;20026;-75
2022/01/08 09:59:55;;;;;;;18.48;7.35;;;;;;;24.56;11.42;97842.19;4973147;28;20057;-75
2022/01/08 10:02:23;;;;;;;19.23;7.95;;;;;;;24.61;12.08;97844.47;4977030;28;20058;-75
2022/01/08 10:04:50;;;;;;;85.82;26.80;;;;;;;24.80;11.63;97837.16;4973052;28;20039;-74
2022/01/08 10:07:25;;;;;;;29.90;11.77;;;;;;;24.90;12.15;97838.88;4970976;28;20385;-74
2022/01/08 10:09:59;;;;;;;51.25;17.80;;;;;;;24.97;12.34;97839.44;4978264;28;20399;-76
2022/01/08 10:12:55;;;;;;;27.10;9.80;;;;;;;25.03;11.67;97834.06;4972927;28;20517;-76
2022/01/08 10:18:33;;;;;;;17.20;8.43;;;;;;;24.33;12.20;97839.63;4968960;28;20077;-76
2022/01/08 10:21:13;;;;;;;17.45;7.93;;;;;;;23.93;12.28;97842.63;4970363;28;20027;-76
2022/01/08 10:23:43;;;;;;;20.00;8.60;;;;;;;24.14;12.93;97835.72;4968997;28;20071;-76
2022/01/08 10:26:13;;;;;;;24.02;8.75;;;;;;;24.51;12.06;97832.31;4967455;28;20495;-75
2022/01/08 10:28:45;;;;;;;23.55;9.43;;;;;;;24.61;12.05;97831.22;4969466;28;20042;-76
2022/01/08 10:31:36;;;;;;;20.30;7.40;;;;;;;24.49;12.16;97828.34;4963964;28;20046;-76
2022/01/08 10:34:02;;;;;;;25.08;9.65;;;;;;;24.76;11.78;97828.03;4973808;28;20390;-75
2022/01/08 10:36:33;;;;;;;24.88;10.35;;;;;;;24.62;11.81;97818.00;4969610;28;20043;-76
2022/01/08 10:39:05;;;;;;;25.48;9.95;;;;;;;24.66;12.24;97822.25;4967365;28;20066;-76
2022/01/08 10:41:32;;;;;;;29.75;12.88;;;;;;;24.54;12.24;97817.38;4971560;28;20090;-75
2022/01/08 10:44:13;;;;;;;19.40;9.40;;;;;;;24.62;12.36;97815.94;4971714;28;20030;-75
2022/01/08 10:46:42;;;;;;;;;;;;;;;24.80;11.96;97814.69;4976740;28;20070;-75
2022/01/08 10:49:08;;;;;;;23.00;9.45;;;;;;;24.69;12.26;97815.75;4975710;28;19929;-75
2022/01/08 10:51:38;;;;;;;20.42;8.77;;;;;;;24.34;12.79;97815.97;4976094;28;20456;-75
2022/01/08 10:54:09;;;;;;;16.33;8.80;;;;;;;24.17;12.75;97823.63;4972941;28;20039;-75
2022/01/08 10:56:48;;;;;;;20.05;8.95;;;;;;;23.88;12.88;97826.31;4972042;28;20298;-75
2022/01/08 10:59:23;;;;;;;20.23;9.82;;;;;;;23.72;13.09;97817.91;4972274;28;20033;-75
2022/01/08 11:02:04;;;;;;;18.23;8.63;;;;;;;23.58;13.19;97818.28;4970731;28;20415;-75
2022/01/08 11:04:33;;;;;;;;;;;;;;;23.65;12.51;97814.50;4972216;28;20184;-75
2022/01/08 11:07:17;;;;;;;17.02;7.07;;;;;;;23.71;12.98;97812.75;4971447;28;19918;-75
2022/01/08 11:09:46;;;;;;;16.75;7.45;;;;;;;24.01;13.08;97810.34;4968310;28;20494;-75
2022/01/08 11:12:18;;;;;;;15.70;7.78;;;;;;;23.79;13.02;97814.16;4967461;28;20030;-75
2022/01/08 11:17:23;;;;;;;9.52;4.43;;;;;;;24.38;11.68;97797.78;4969450;28;20050;-76
2022/01/08 11:19:52;;;;;;;9.25;4.60;;;;;;;24.43;11.54;97786.03;4971826;28;20182;-75
2022/01/08 11:22:21;;;;;;;8.93;5.10;;;;;;;24.39;11.33;97787.34;4968163;28;20482;-75
2022/01/08 11:24:53;;;;;;;10.20;5.03;;;;;;;24.61;12.01;97789.13;4970418;28;20031;-75
2022/01/08 11:27:26;;;;;;;13.05;6.03;;;;;;;24.50;11.73;97780.22;4966700;28;20041;-75
2022/01/08 11:29:58;;;;;;;9.88;4.22;;;;;;;24.46;11.46;97784.34;4969323;28;20065;-75
2022/01/08 11:32:27;;;;;;;11.77;6.30;;;;;;;24.74;10.79;97775.88;4963042;28;20390;-75
2022/01/08 11:34:54;;;;;;;8.25;4.15;;;;;;;24.66;10.90;97782.97;4969245;28;20081;-75
2022/01/08 11:37:23;;;;;;;13.82;6.78;;;;;;;24.49;11.31;97781.44;4969914;28;20082;-75
2022/01/08 11:39:51;;;;;;;6.60;3.50;;;;;;;24.68;11.78;97783.31;4970130;28;20034;-75
2022/01/08 11:42:21;;;;;;;10.35;4.35;;;;;;;24.96;11.44;97776.09;4969579;28;20034;-75
2022/01/08 11:44:49;;;;;;;6.57;3.28;;;;;;;24.91;11.64;97779.44;4971244;28;20027;-75
2022/01/08 11:47:19;;;;;;;14.63;3.67;;;;;;;24.97;11.68;97776.88;4970435;28;20038;-75
2022/01/08 11:49:47;;;;;;;8.02;4.18;;;;;;;25.02;11.23;97777.09;4967505;28;20110;-75